createdAt,value
2018-09-06T00:00:38.476Z,16.40
2018-09-06T00:05:32.883Z,16.30
2018-09-06T00:10:28.107Z,16.30
2018-09-06T00:15:22.587Z,16.30
2018-09-06T00:20:17.502Z,16.30
2018-09-06T00:25:11.967Z,16.30
2018-09-06T00:30:07.006Z,16.30
2018-09-06T00:35:02.263Z,16.30
2018-09-06T00:39:57.173Z,16.40
2018-09-06T00:44:51.569Z,16.40
2018-09-06T00:49:53.540Z,16.50
2018-09-06T00:54:48.865Z,16.60
2018-09-06T00:59:43.742Z,16.60
2018-09-06T01:04:39.178Z,16.70
2018-09-06T01:09:33.765Z,16.60
2018-09-06T01:14:28.928Z,16.60
2018-09-06T01:19:23.548Z,16.60
2018-09-06T01:24:18.694Z,16.60
2018-09-06T01:29:15.052Z,16.60
2018-09-06T01:34:33.755Z,16.60
2018-09-06T01:39:28.281Z,16.50
2018-09-06T01:44:22.961Z,16.40
2018-09-06T01:49:18.190Z,16.40
2018-09-06T01:54:12.568Z,16.30
2018-09-06T01:59:15.563Z,16.30
2018-09-06T02:04:18.203Z,16.30
2018-09-06T02:09:20.346Z,16.30
2018-09-06T02:14:15.173Z,16.20
2018-09-06T02:19:09.768Z,16.20
2018-09-06T02:24:04.466Z,16.20
2018-09-06T02:28:59.072Z,16.20
2018-09-06T02:34:01.720Z,16.10
2018-09-06T02:38:58.884Z,16.00
2018-09-06T02:43:54.913Z,15.90
2018-09-06T02:48:50.947Z,15.80
2018-09-06T02:53:45.614Z,15.80
2018-09-06T02:58:47.651Z,15.70
2018-09-06T03:03:49.577Z,15.70
2018-09-06T03:08:52.906Z,15.60
2018-09-06T03:13:47.807Z,15.60
2018-09-06T03:18:42.325Z,15.50
2018-09-06T03:23:38.068Z,15.50
2018-09-06T03:28:32.505Z,15.40
2018-09-06T03:33:27.411Z,15.40
2018-09-06T03:38:21.823Z,15.20
2018-09-06T03:43:17.135Z,15.10
2018-09-06T03:48:11.656Z,15.10
2018-09-06T03:53:14.038Z,15.10
2018-09-06T03:58:16.575Z,15.10
2018-09-06T04:03:15.979Z,15.00
2018-09-06T04:08:11.464Z,14.90
2018-09-06T04:13:06.454Z,14.90
2018-09-06T04:18:01.059Z,14.80
2018-09-06T04:22:57.902Z,14.80
2018-09-06T04:27:52.494Z,14.80
2018-09-06T04:32:47.158Z,14.80
2018-09-06T04:37:41.988Z,14.80
2018-09-06T04:42:36.588Z,14.80
2018-09-06T04:47:46.142Z,14.80
2018-09-06T04:52:56.233Z,14.80
2018-09-06T04:58:13.571Z,15.00
2018-09-06T05:03:23.968Z,15.10
2018-09-06T05:08:34.512Z,15.20
2018-09-06T05:13:29.699Z,15.40
2018-09-06T05:18:28.402Z,15.50
2018-09-06T05:23:24.373Z,15.70
2018-09-06T05:28:19.393Z,15.90
2018-09-06T05:33:14.311Z,16.10
2018-09-06T05:38:16.181Z,16.40
2018-09-06T05:43:19.238Z,16.80
2018-09-06T05:48:14.145Z,17.30
2018-09-06T05:53:09.135Z,17.40
2018-09-06T05:58:04.001Z,17.30
2018-09-06T06:03:00.701Z,17.70
2018-09-06T06:08:16.204Z,18.30
2018-09-06T06:13:18.883Z,19.50
2018-09-06T06:18:16.261Z,19.80
2018-09-06T06:23:10.890Z,18.90
2018-09-06T06:28:06.010Z,19.90
2018-09-06T06:33:00.942Z,21.70
2018-09-06T06:38:05.018Z,22.00
2018-09-06T06:43:07.736Z,21.70
2018-09-06T06:48:09.509Z,21.70
2018-09-06T06:53:04.380Z,22.60
2018-09-06T06:57:59.503Z,23.00
2018-09-06T07:02:54.905Z,22.60
2018-09-06T07:07:49.808Z,22.50
2018-09-06T07:12:44.384Z,22.10
2018-09-06T07:17:39.022Z,22.00
2018-09-06T07:22:50.401Z,22.30
2018-09-06T07:27:45.285Z,23.40
2018-09-06T07:32:47.421Z,24.20
2018-09-06T07:37:49.353Z,23.30
2018-09-06T07:42:51.621Z,23.10
2018-09-06T07:47:46.922Z,23.80
2018-09-06T07:52:42.348Z,24.90
2018-09-06T07:57:37.247Z,27.40
2018-09-06T08:02:33.719Z,28.90
2018-09-06T08:07:29.233Z,28.30
2018-09-06T08:12:24.306Z,28.90
2018-09-06T08:17:20.241Z,28.30
2018-09-06T08:22:15.771Z,28.40
2018-09-06T08:27:34.235Z,31.10
2018-09-06T08:32:29.572Z,32.10
2018-09-06T08:37:24.684Z,33.00
2018-09-06T08:42:19.389Z,33.70
2018-09-06T08:47:14.952Z,35.80
2018-09-06T08:52:18.505Z,36.30
2018-09-06T08:57:13.511Z,35.90
2018-09-06T09:02:13.964Z,36.70
2018-09-06T09:07:08.658Z,36.00
2018-09-06T09:12:05.327Z,35.00
2018-09-06T09:17:00.805Z,34.80
2018-09-06T09:21:56.101Z,35.10
2018-09-06T09:26:50.663Z,35.20
2018-09-06T09:31:47.124Z,35.20
2018-09-06T09:36:41.904Z,34.40
2018-09-06T09:41:44.414Z,35.10
2018-09-06T09:51:32.831Z,37.50
2018-09-06T09:56:31.365Z,36.30
2018-09-06T10:01:30.474Z,39.30
2018-09-06T10:06:30.584Z,37.50
2018-09-06T10:11:25.759Z,38.10
2018-09-06T10:16:22.773Z,37.90
2018-09-06T10:21:18.559Z,38.00
2018-09-06T10:26:21.495Z,36.30
2018-09-06T10:31:16.693Z,36.70
2018-09-06T10:36:12.495Z,37.30
2018-09-06T10:41:08.893Z,38.30
2018-09-06T10:46:05.327Z,37.20
2018-09-06T10:51:00.168Z,36.80
2018-09-06T10:55:55.518Z,37.30
2018-09-06T11:00:51.189Z,37.30
2018-09-06T11:05:45.882Z,38.70
2018-09-06T11:10:41.192Z,36.70
2018-09-06T11:15:37.913Z,36.30
2018-09-06T11:20:36.055Z,35.30
2018-09-06T11:25:32.354Z,34.00
2018-09-06T11:30:28.338Z,32.40
2018-09-06T11:35:23.990Z,30.80
2018-09-06T11:40:19.572Z,31.00
2018-09-06T11:45:15.278Z,30.60
2018-09-06T11:50:10.474Z,29.40
2018-09-06T11:55:05.851Z,29.00
2018-09-06T12:00:01.428Z,29.70
2018-09-06T12:04:56.352Z,30.00
2018-09-06T12:09:51.641Z,29.50
2018-09-06T12:14:50.981Z,29.70
2018-09-06T12:19:47.084Z,29.40
2018-09-06T12:24:43.100Z,28.90
2018-09-06T12:29:45.066Z,28.80
2018-09-06T12:34:47.868Z,28.60
2018-09-06T12:39:44.984Z,28.80
2018-09-06T12:44:40.670Z,29.10
2018-09-06T12:49:58.058Z,29.30
2018-09-06T12:55:09.386Z,29.40
2018-09-06T13:00:06.666Z,28.80
2018-09-06T13:05:02.486Z,28.10
2018-09-06T13:09:58.459Z,28.00
2018-09-06T13:14:55.451Z,28.10
2018-09-06T13:19:50.437Z,28.10
2018-09-06T13:24:45.703Z,28.60
2018-09-06T13:29:40.681Z,28.90
2018-09-06T13:34:43.632Z,29.00
2018-09-06T13:39:39.586Z,28.70
2018-09-06T13:44:34.117Z,28.70
2018-09-06T13:49:29.364Z,28.90
2018-09-06T13:54:24.944Z,29.10
2018-09-06T13:59:27.996Z,29.10
2018-09-06T14:04:23.756Z,29.30
2018-09-06T14:09:18.841Z,29.40
2018-09-06T14:14:13.537Z,29.10
2018-09-06T14:19:08.212Z,28.70
2018-09-06T14:24:03.479Z,28.70
2018-09-06T14:28:58.241Z,28.50
2018-09-06T14:33:53.025Z,28.50
2018-09-06T14:38:47.744Z,28.60
2018-09-06T14:43:42.829Z,28.90
2018-09-06T14:48:37.367Z,29.00
2018-09-06T14:53:33.565Z,28.90
2018-09-06T14:58:28.772Z,28.50
2018-09-06T15:03:32.169Z,28.30
2018-09-06T15:08:27.693Z,28.40
2018-09-06T15:13:22.636Z,28.10
2018-09-06T15:18:17.901Z,27.60
2018-09-06T15:23:12.874Z,27.60
2018-09-06T15:28:08.139Z,27.40
2018-09-06T15:33:02.674Z,27.20
2018-09-06T15:37:57.524Z,27.30
2018-09-06T15:42:59.065Z,27.30
2018-09-06T15:47:53.616Z,27.30
2018-09-06T15:52:49.283Z,27.10
2018-09-06T15:57:43.940Z,26.80
2018-09-06T16:02:39.516Z,26.80
2018-09-06T16:07:34.570Z,26.80
2018-09-06T16:12:30.974Z,26.70
2018-09-06T16:17:26.688Z,26.60
2018-09-06T16:22:22.661Z,26.40
2018-09-06T16:27:17.572Z,26.30
2018-09-06T16:32:12.934Z,26.20
2018-09-06T16:37:09.529Z,26.20
2018-09-06T16:42:06.878Z,26.20
2018-09-06T16:47:02.104Z,26.10
2018-09-06T16:51:59.201Z,26.00
2018-09-06T16:56:53.943Z,25.90
2018-09-06T17:01:53.689Z,25.80
2018-09-06T17:06:48.269Z,25.80
2018-09-06T17:11:50.545Z,25.60
2018-09-06T17:16:48.656Z,25.40
2018-09-06T17:21:43.575Z,25.20
2018-09-06T17:26:38.405Z,25.10
2018-09-06T17:31:33.237Z,24.90
2018-09-06T17:36:38.773Z,24.70
2018-09-06T17:41:35.222Z,24.60
2018-09-06T17:46:30.257Z,24.30
2018-09-06T17:51:26.954Z,24.20
2018-09-06T17:56:22.462Z,23.90
2018-09-06T18:01:34.872Z,23.80
2018-09-06T18:06:32.780Z,23.60
2018-09-06T18:11:28.629Z,23.50
2018-09-06T18:16:26.984Z,23.30
2018-09-06T18:21:23.046Z,23.20
2018-09-06T18:26:18.754Z,23.10
2018-09-06T18:31:14.286Z,23.00
2018-09-06T18:36:10.620Z,22.90
2018-09-06T18:41:06.086Z,22.80
2018-09-06T18:51:16.205Z,22.60
2018-09-06T18:56:10.538Z,22.50
2018-09-06T19:01:05.551Z,22.50
2018-09-06T19:05:59.956Z,22.50
2018-09-06T19:11:01.807Z,22.40
2018-09-06T19:15:57.497Z,22.40
2018-09-06T19:20:52.473Z,22.30
2018-09-06T19:25:49.412Z,22.20
2018-09-06T19:30:43.496Z,22.10
2018-09-06T19:35:38.175Z,22.10
2018-09-06T19:40:33.961Z,22.00
2018-09-06T19:45:29.053Z,21.90
2018-09-06T19:50:23.513Z,21.70
2018-09-06T19:55:18.942Z,21.60
2018-09-06T20:00:13.015Z,21.50
2018-09-06T20:05:08.025Z,21.40
2018-09-06T20:10:03.072Z,21.20
2018-09-06T20:15:05.447Z,21.20
2018-09-06T20:20:00.268Z,21.10
2018-09-06T20:24:54.489Z,21.10
2018-09-06T20:29:49.193Z,21.00
2018-09-06T20:34:43.709Z,20.90
2018-09-06T20:39:45.824Z,20.70
2018-09-06T20:44:41.042Z,20.60
2018-09-06T20:49:35.327Z,20.50
2018-09-06T20:54:29.914Z,20.40
2018-09-06T20:59:25.082Z,20.20
2018-09-06T21:04:27.043Z,20.10
2018-09-06T21:09:22.983Z,20.10
2018-09-06T21:14:17.301Z,20.00
2018-09-06T21:19:13.112Z,19.90
2018-09-06T21:24:07.983Z,19.80
2018-09-06T21:29:02.698Z,19.70
2018-09-06T21:33:57.250Z,19.80
2018-09-06T21:38:52.697Z,19.80
2018-09-06T21:43:47.978Z,19.80
2018-09-06T21:48:43.108Z,19.90
2018-09-06T21:53:36.949Z,19.90
2018-09-06T21:58:31.050Z,19.90
2018-09-06T22:03:31.594Z,19.80
2018-09-06T22:08:26.272Z,19.70
2018-09-06T22:13:29.647Z,19.70
2018-09-06T22:18:32.622Z,19.60
2018-09-06T22:23:34.316Z,19.50
2018-09-06T22:28:28.701Z,19.40
2018-09-06T22:33:22.883Z,19.40
2018-09-06T22:38:18.675Z,19.30
2018-09-06T22:43:13.909Z,19.20
2018-09-06T22:48:09.574Z,19.10
2018-09-06T22:53:05.852Z,19.00
2018-09-06T22:58:01.068Z,18.90
2018-09-06T23:02:59.933Z,18.80
2018-09-06T23:08:01.963Z,18.70
2018-09-06T23:12:56.845Z,18.70
2018-09-06T23:17:51.037Z,18.60
2018-09-06T23:22:45.044Z,18.60
2018-09-06T23:27:39.026Z,18.50
2018-09-06T23:32:33.760Z,18.50
2018-09-06T23:37:27.898Z,18.50
2018-09-06T23:42:24.687Z,18.40
2018-09-06T23:47:20.785Z,18.40
2018-09-06T23:52:15.649Z,18.40
2018-09-06T23:57:10.352Z,18.30
